Terminal Aerodrome Forecast
Issued by NWS Sioux Falls, SD

Home | Current Version | Previous Version | Graphics & Text | Print | Product List | Glossary Off
Versions: 1 2 3 4 5 6 7 8 9 10 11 12 13 14 15 16 17 18 19 20 21 22 23 24 25 26 27 28 29 30 31 32 33 34 35 36

967
FTUS43 KFSD 260524
TAFSUX
TAF
KSUX 260524Z 2606/2706 33015G23KT P6SM OVC010
     FM261800 32017G25KT P6SM OVC020
     FM270200 33011KT P6SM BKN045=

USA.gov is the U.S. government's official web portal to all federal, state and local government web resources and services.